Time;durP1;ratioP1;P1;durP2;ratioP2;P2;SDS_P1;SDS_P2;PMS_P1;PMS_P2;Temp;Humidity;BMP_temperature;BMP_pressure;BME280_temperature;BME280_humidity;BME280_pressure;Samples;Min_cycle;Max_cycle;Signal;HPM_P1;HPM_P2
2024/01/09 00:00:16;;;;;;;4.75;1.98;;;-2.00;99.90;;;;;;5074991;28;20048;-44
2024/01/09 00:02:42;;;;;;;4.95;1.80;;;-2.10;99.90;;;;;;5076069;28;20387;-43
2024/01/09 00:05:08;;;;;;;4.28;1.73;;;-2.10;99.90;;;;;;5075959;28;20110;-43
2024/01/09 00:07:34;;;;;;;4.05;1.73;;;-2.10;99.90;;;;;;5075752;28;20048;-43
2024/01/09 00:10:00;;;;;;;5.30;1.73;;;-2.10;99.90;;;;;;5076486;28;20048;-43
2024/01/09 00:12:25;;;;;;;5.70;1.75;;;-2.20;99.90;;;;;;5075861;28;20045;-43
2024/01/09 00:14:51;;;;;;;7.07;1.50;;;-2.20;99.90;;;;;;5074607;28;20048;-43
2024/01/09 00:17:17;;;;;;;4.65;1.80;;;-2.20;99.90;;;;;;5074632;28;20455;-43
2024/01/09 00:19:42;;;;;;;4.25;1.73;;;-2.20;99.90;;;;;;5075612;28;20055;-43
2024/01/09 00:22:08;;;;;;;6.30;1.60;;;-2.20;99.90;;;;;;5075617;28;20373;-43
2024/01/09 00:24:34;;;;;;;4.60;1.70;;;-2.20;99.90;;;;;;5075998;28;20106;-43
2024/01/09 00:26:59;;;;;;;5.95;1.70;;;-2.20;99.90;;;;;;5075582;28;20472;-43
2024/01/09 00:29:25;;;;;;;5.10;1.40;;;-2.30;99.90;;;;;;5075467;28;20054;-43
2024/01/09 00:31:51;;;;;;;4.30;1.83;;;-2.20;99.90;;;;;;5075558;28;20080;-43
2024/01/09 00:34:16;;;;;;;5.15;1.52;;;-2.30;99.90;;;;;;5075545;28;20040;-43
2024/01/09 00:36:43;;;;;;;3.22;1.23;;;-2.30;99.90;;;;;;5075323;28;20127;-43
2024/01/09 00:39:12;;;;;;;3.78;1.38;;;-2.30;99.90;;;;;;5075484;28;20044;-44
2024/01/09 00:41:38;;;;;;;4.85;1.63;;;-2.30;99.90;;;;;;5074329;28;20547;-43
2024/01/09 00:44:04;;;;;;;4.22;1.70;;;-2.30;99.90;;;;;;5075390;28;20147;-44
2024/01/09 00:46:29;;;;;;;4.95;1.45;;;-2.30;99.90;;;;;;5075239;28;20395;-43
2024/01/09 00:48:55;;;;;;;5.43;1.73;;;-2.30;99.90;;;;;;5074169;28;20102;-43
2024/01/09 00:51:21;;;;;;;6.18;1.83;;;-2.40;99.90;;;;;;5074898;28;20101;-43
2024/01/09 00:53:46;;;;;;;4.30;1.70;;;-2.40;99.90;;;;;;5057543;28;20444;-44
2024/01/09 00:56:12;;;;;;;6.35;1.80;;;-2.40;99.90;;;;;;5073865;28;20044;-43
2024/01/09 00:58:38;;;;;;;3.25;1.45;;;-2.40;99.90;;;;;;5075010;28;20045;-44
2024/01/09 01:01:04;;;;;;;5.22;1.95;;;-2.40;99.90;;;;;;5075021;28;20079;-45
2024/01/09 01:03:30;;;;;;;5.93;1.90;;;-2.50;99.90;;;;;;5074282;28;20051;-45
2024/01/09 01:05:55;;;;;;;4.43;1.40;;;-2.50;99.90;;;;;;5074586;28;20048;-44
2024/01/09 01:08:21;;;;;;;4.35;1.60;;;-2.50;99.90;;;;;;5074881;28;20384;-44
2024/01/09 01:10:48;;;;;;;4.38;1.70;;;-2.50;99.90;;;;;;5075049;28;20045;-45
2024/01/09 01:13:14;;;;;;;6.05;1.58;;;-2.60;99.90;;;;;;5074708;28;20063;-47
2024/01/09 01:15:39;;;;;;;5.00;1.83;;;-2.60;99.90;;;;;;5074774;28;20496;-44
2024/01/09 01:18:05;;;;;;;4.97;1.77;;;-2.60;99.90;;;;;;5074637;28;20399;-44
2024/01/09 01:20:31;;;;;;;5.90;1.75;;;-2.60;99.90;;;;;;5074462;28;20414;-45
2024/01/09 01:22:57;;;;;;;5.57;1.52;;;-2.60;99.90;;;;;;5074556;28;20543;-44
2024/01/09 01:25:22;;;;;;;7.03;1.50;;;-2.70;99.90;;;;;;5074481;28;20087;-47
2024/01/09 01:27:48;;;;;;;4.38;1.83;;;-2.70;99.90;;;;;;5074307;28;20136;-44
2024/01/09 01:30:15;;;;;;;5.38;1.73;;;-2.70;99.90;;;;;;5073523;28;20088;-47
2024/01/09 01:32:40;;;;;;;4.85;1.73;;;-2.70;99.90;;;;;;5074196;28;20036;-45
2024/01/09 01:35:06;;;;;;;4.13;1.50;;;-2.70;99.90;;;;;;5074256;28;20106;-43
2024/01/09 01:37:32;;;;;;;5.72;1.70;;;-2.80;99.90;;;;;;5073993;28;20066;-43
2024/01/09 01:39:57;;;;;;;3.83;1.58;;;-2.80;99.90;;;;;;5074270;28;20109;-44
2024/01/09 01:42:23;;;;;;;4.40;1.35;;;-2.80;99.90;;;;;;5074295;28;20036;-44
2024/01/09 01:44:49;;;;;;;5.97;1.58;;;-2.80;99.90;;;;;;5074227;28;20076;-44
2024/01/09 01:47:15;;;;;;;4.03;1.50;;;-2.80;99.90;;;;;;5073950;28;20044;-43
2024/01/09 01:49:41;;;;;;;3.85;1.67;;;-2.80;99.90;;;;;;5072933;28;20116;-45
2024/01/09 01:52:08;;;;;;;4.63;1.55;;;-2.80;99.90;;;;;;5073760;28;20048;-44
2024/01/09 01:54:37;;;;;;;4.13;1.48;;;-2.80;99.90;;;;;;5073700;28;20491;-44
2024/01/09 01:57:05;;;;;;;3.70;1.50;;;-2.90;99.90;;;;;;5073990;28;20079;-44
2024/01/09 01:59:34;;;;;;;4.68;1.50;;;-2.90;99.90;;;;;;5074119;28;20396;-44
2024/01/09 02:02:03;;;;;;;5.07;1.92;;;-2.90;99.90;;;;;;5073942;28;20047;-44
2024/01/09 02:04:29;;;;;;;4.97;1.52;;;-2.90;99.90;;;;;;5073742;28;20507;-45
2024/01/09 02:06:54;;;;;;;5.45;2.00;;;-2.90;99.90;;;;;;5073834;28;20079;-43
2024/01/09 02:09:21;;;;;;;4.95;1.85;;;-2.90;99.90;;;;;;5074353;28;20137;-43
2024/01/09 02:11:48;;;;;;;4.80;1.93;;;-3.00;99.90;;;;;;5072568;28;20049;-43
2024/01/09 02:14:14;;;;;;;5.95;2.05;;;-3.00;99.90;;;;;;5073947;28;20635;-44
2024/01/09 02:16:40;;;;;;;7.32;1.90;;;-3.00;99.90;;;;;;5072991;28;20056;-43
2024/01/09 02:19:05;;;;;;;5.78;1.92;;;-3.00;99.90;;;;;;5073511;28;20052;-44
2024/01/09 02:21:31;;;;;;;5.90;2.20;;;-3.00;99.90;;;;;;5073713;28;20052;-44
2024/01/09 02:23:57;;;;;;;7.55;1.70;;;-3.00;99.90;;;;;;5073623;28;20135;-44
2024/01/09 02:26:30;;;;;;;5.00;1.95;;;-3.00;99.90;;;;;;5073856;28;20044;-44
2024/01/09 02:29:02;;;;;;;5.25;1.90;;;-3.00;99.90;;;;;;5073581;28;20087;-43
2024/01/09 02:31:28;;;;;;;3.88;1.63;;;-3.10;99.90;;;;;;5073314;28;20487;-44
2024/01/09 02:33:54;;;;;;;5.85;1.80;;;-3.10;99.90;;;;;;5073746;28;20055;-44
2024/01/09 02:36:20;;;;;;;3.95;1.15;;;-3.10;99.90;;;;;;5073565;28;20464;-44
2024/01/09 02:38:46;;;;;;;8.15;1.98;;;-3.10;99.90;;;;;;5073584;28;20131;-44
2024/01/09 02:41:11;;;;;;;5.13;1.70;;;-3.10;99.90;;;;;;5073605;28;20048;-44
2024/01/09 02:43:37;;;;;;;5.78;1.63;;;-3.20;99.90;;;;;;5072391;28;20434;-45
2024/01/09 02:46:03;;;;;;;4.65;1.85;;;-3.20;99.90;;;;;;5073153;28;20044;-44
2024/01/09 02:48:28;;;;;;;4.80;1.52;;;-3.20;99.90;;;;;;5072573;28;20044;-43
2024/01/09 02:50:54;;;;;;;4.68;1.52;;;-3.20;99.90;;;;;;5073538;28;20044;-43
2024/01/09 02:53:19;;;;;;;6.10;1.50;;;-3.30;99.90;;;;;;5073376;28;20460;-44
2024/01/09 02:55:45;;;;;;;4.57;1.15;;;-3.30;99.90;;;;;;5073344;28;20523;-43
2024/01/09 02:58:11;;;;;;;4.90;1.58;;;-3.30;99.90;;;;;;5073321;28;20051;-43
2024/01/09 03:00:36;;;;;;;5.93;1.50;;;-3.30;99.90;;;;;;5073294;28;20045;-43
2024/01/09 03:03:02;;;;;;;3.95;1.40;;;-3.30;99.90;;;;;;5072967;28;20044;-43
2024/01/09 03:05:28;;;;;;;3.95;1.40;;;-3.30;99.90;;;;;;5089116;28;20048;-43
2024/01/09 03:07:53;;;;;;;3.83;1.27;;;-3.30;99.90;;;;;;5073148;28;20044;-44
2024/01/09 03:10:19;;;;;;;4.90;1.65;;;-3.30;99.90;;;;;;5073179;28;20047;-43
2024/01/09 03:12:45;;;;;;;3.42;1.40;;;-3.30;99.90;;;;;;5073063;28;20044;-43
2024/01/09 03:15:10;;;;;;;5.90;1.65;;;-3.30;99.90;;;;;;5073058;28;20083;-43
2024/01/09 03:17:36;;;;;;;3.55;1.38;;;-3.30;99.90;;;;;;5072973;28;20060;-43
2024/01/09 03:20:03;;;;;;;3.65;1.40;;;-3.30;99.90;;;;;;5073347;28;20048;-43
2024/01/09 03:22:29;;;;;;;3.28;1.40;;;-3.30;99.90;;;;;;5073161;28;20494;-44
2024/01/09 03:24:54;;;;;;;3.83;1.33;;;-3.40;99.90;;;;;;5073161;28;20049;-43
2024/01/09 03:27:20;;;;;;;3.38;1.20;;;-3.40;99.90;;;;;;5074509;28;20048;-47
2024/01/09 03:29:46;;;;;;;3.80;1.27;;;-3.30;99.90;;;;;;5076725;28;20056;-43
2024/01/09 03:32:11;;;;;;;4.30;1.40;;;-3.40;99.90;;;;;;5076369;28;20044;-44
2024/01/09 03:34:37;;;;;;;4.45;1.45;;;-3.40;99.90;;;;;;5076654;28;20249;-47
2024/01/09 03:37:03;;;;;;;4.90;1.58;;;-3.40;99.90;;;;;;5076667;28;20063;-45
2024/01/09 03:39:28;;;;;;;4.65;1.50;;;-3.40;99.90;;;;;;5076503;28;20487;-45
2024/01/09 03:41:54;;;;;;;4.85;1.70;;;-3.40;99.90;;;;;;5076317;28;20124;-48
2024/01/09 03:44:20;;;;;;;4.30;1.55;;;-3.40;99.90;;;;;;5076421;28;20044;-46
2024/01/09 03:46:45;;;;;;;4.95;1.60;;;-3.50;99.90;;;;;;5075256;28;20407;-43
2024/01/09 03:49:11;;;;;;;5.72;1.75;;;-3.50;99.90;;;;;;5076413;28;20582;-45
2024/01/09 03:51:37;;;;;;;4.00;1.55;;;-3.60;99.90;;;;;;5076111;28;20051;-43
2024/01/09 03:54:02;;;;;;;4.15;1.67;;;-3.60;99.90;;;;;;5076452;28;20076;-44
2024/01/09 03:56:28;;;;;;;5.38;2.13;;;-3.70;99.90;;;;;;5076156;28;20045;-43
2024/01/09 03:58:54;;;;;;;5.43;1.80;;;-3.70;99.90;;;;;;5076269;28;20088;-45
2024/01/09 04:01:19;;;;;;;4.43;1.85;;;-3.80;99.90;;;;;;5074991;28;20396;-43
2024/01/09 04:03:45;;;;;;;7.97;1.70;;;-3.90;99.90;;;;;;5075283;28;20391;-44
2024/01/09 04:06:11;;;;;;;5.22;1.50;;;-3.90;99.90;;;;;;5058795;28;20369;-43
2024/01/09 04:08:37;;;;;;;5.70;1.92;;;-4.00;99.90;;;;;;5076099;28;20048;-43
2024/01/09 04:11:06;;;;;;;3.35;1.50;;;-3.90;99.90;;;;;;5075803;28;20056;-43
2024/01/09 04:13:31;;;;;;;4.47;1.38;;;-4.00;99.90;;;;;;5075916;28;20090;-43
2024/01/09 04:15:57;;;;;;;6.35;1.60;;;-4.00;99.90;;;;;;5075602;28;20049;-43
2024/01/09 04:18:23;;;;;;;6.32;2.00;;;-4.00;99.90;;;;;;5075944;28;20049;-44
2024/01/09 04:20:49;;;;;;;4.40;1.55;;;-4.00;99.90;;;;;;5075802;28;20044;-43
2024/01/09 04:23:14;;;;;;;5.93;1.90;;;-4.10;99.90;;;;;;5075875;28;20056;-43
2024/01/09 04:25:40;;;;;;;4.80;1.45;;;-4.10;99.90;;;;;;5075996;28;20036;-44
2024/01/09 04:28:06;;;;;;;3.75;1.60;;;-4.10;99.90;;;;;;5075631;28;20522;-44
2024/01/09 04:30:31;;;;;;;5.90;1.90;;;-4.10;99.90;;;;;;5075413;28;20395;-44
2024/01/09 04:32:57;;;;;;;5.97;1.73;;;-4.10;99.90;;;;;;5075572;28;20107;-43
2024/01/09 04:35:23;;;;;;;5.50;1.83;;;-4.10;99.90;;;;;;5075568;28;20051;-43
2024/01/09 04:37:48;;;;;;;5.18;1.80;;;-4.10;99.90;;;;;;5075524;28;20479;-43
2024/01/09 04:40:14;;;;;;;4.70;1.85;;;-4.10;99.90;;;;;;5074660;28;20045;-43
2024/01/09 04:42:40;;;;;;;6.13;1.63;;;-4.10;99.90;;;;;;5075236;28;20047;-43
2024/01/09 04:45:06;;;;;;;6.10;2.27;;;-4.10;99.90;;;;;;5075092;28;20052;-44
2024/01/09 04:47:31;;;;;;;4.95;2.10;;;-4.10;99.90;;;;;;5075706;28;20098;-43
2024/01/09 04:49:57;;;;;;;5.18;1.73;;;-4.10;99.90;;;;;;5074997;28;20115;-43
2024/01/09 04:52:23;;;;;;;5.60;1.80;;;-4.10;99.90;;;;;;5074166;28;20044;-43
2024/01/09 04:54:49;;;;;;;4.53;1.73;;;-4.10;99.90;;;;;;5074444;28;20052;-43
2024/01/09 04:57:14;;;;;;;5.78;2.20;;;-4.10;99.90;;;;;;5073994;28;20048;-43
2024/01/09 04:59:42;;;;;;;5.47;1.80;;;-4.10;99.90;;;;;;5074787;28;20071;-43
2024/01/09 05:02:08;;;;;;;4.90;1.75;;;-4.10;99.90;;;;;;5074340;28;20059;-43
2024/01/09 05:04:34;;;;;;;5.18;1.92;;;-4.10;99.90;;;;;;5074862;28;20377;-43
2024/01/09 05:07:00;;;;;;;6.57;2.13;;;-4.10;99.90;;;;;;5074930;28;20060;-43
2024/01/09 05:09:26;;;;;;;6.73;1.90;;;-4.10;99.90;;;;;;5074866;28;20044;-43
2024/01/09 05:11:51;;;;;;;5.17;1.83;;;-4.20;99.90;;;;;;5074585;28;20088;-43
2024/01/09 05:14:17;;;;;;;5.63;2.10;;;-4.10;99.90;;;;;;5074596;28;20384;-44
2024/01/09 05:16:43;;;;;;;6.40;2.27;;;-4.10;99.90;;;;;;5074782;28;20053;-43
2024/01/09 05:19:09;;;;;;;5.27;2.00;;;-4.10;99.90;;;;;;5074716;28;20373;-43
2024/01/09 05:21:35;;;;;;;5.90;2.10;;;-4.10;99.90;;;;;;5073733;28;20052;-43
2024/01/09 05:24:01;;;;;;;5.67;2.33;;;-4.20;99.90;;;;;;5074532;28;20446;-42
2024/01/09 05:26:26;;;;;;;6.43;2.40;;;-4.10;99.90;;;;;;5074445;28;20275;-43
2024/01/09 05:28:52;;;;;;;5.28;1.85;;;-4.10;99.90;;;;;;5073209;28;20040;-43
2024/01/09 05:31:18;;;;;;;6.05;2.30;;;-4.10;99.90;;;;;;5074425;28;20040;-43
2024/01/09 05:33:44;;;;;;;5.30;2.10;;;-4.20;99.90;;;;;;5074507;28;20061;-42
2024/01/09 05:36:09;;;;;;;6.55;2.88;;;-4.20;99.90;;;;;;5073277;28;20433;-43
2024/01/09 05:38:35;;;;;;;5.10;1.90;;;-4.20;99.90;;;;;;5074091;28;20044;-43
2024/01/09 05:41:01;;;;;;;6.75;2.45;;;-4.20;99.90;;;;;;5073293;28;20059;-44
2024/01/09 05:43:27;;;;;;;6.70;2.60;;;-4.30;99.90;;;;;;5074149;28;20123;-43
2024/01/09 05:45:52;;;;;;;5.43;2.20;;;-4.30;99.90;;;;;;5073006;28;20357;-42
2024/01/09 05:48:18;;;;;;;5.95;2.63;;;-4.30;99.90;;;;;;5074148;28;20479;-43
2024/01/09 05:50:44;;;;;;;5.60;2.10;;;-4.30;99.90;;;;;;5074028;28;20113;-42
2024/01/09 05:53:10;;;;;;;5.60;2.58;;;-4.30;99.90;;;;;;5074020;28;20131;-42
2024/01/09 05:55:35;;;;;;;4.97;2.22;;;-4.30;99.90;;;;;;5073932;28;20047;-43
2024/01/09 05:58:01;;;;;;;4.78;1.77;;;-4.30;99.90;;;;;;5073816;28;20044;-42
2024/01/09 06:00:27;;;;;;;5.30;2.00;;;-4.40;99.90;;;;;;5074333;28;20037;-42
2024/01/09 06:02:52;;;;;;;5.43;2.30;;;-4.40;99.90;;;;;;5073735;28;20044;-42
2024/01/09 06:05:18;;;;;;;5.82;2.00;;;-4.40;99.90;;;;;;5073728;28;20082;-44
2024/01/09 06:07:44;;;;;;;6.78;2.17;;;-4.40;99.90;;;;;;5073607;28;20048;-44
2024/01/09 06:10:10;;;;;;;5.93;2.10;;;-4.40;99.90;;;;;;5073738;28;20051;-43
2024/01/09 06:12:36;;;;;;;5.68;1.98;;;-4.40;99.90;;;;;;5073419;28;20041;-43
2024/01/09 06:15:03;;;;;;;7.15;2.30;;;-4.50;99.90;;;;;;5072236;28;20080;-42
2024/01/09 06:17:29;;;;;;;5.45;1.92;;;-4.50;99.90;;;;;;5073628;28;20119;-42
2024/01/09 06:19:54;;;;;;;4.75;2.15;;;-4.50;99.90;;;;;;5073575;28;20583;-41
2024/01/09 06:22:20;;;;;;;6.22;2.22;;;-4.50;99.90;;;;;;5073905;28;20131;-41
2024/01/09 06:24:46;;;;;;;6.30;2.47;;;-4.50;99.90;;;;;;5072880;28;20045;-42
2024/01/09 06:27:11;;;;;;;6.32;2.55;;;-4.50;99.90;;;;;;5073516;28;20044;-41
2024/01/09 06:29:37;;;;;;;7.10;2.78;;;-4.50;99.90;;;;;;5073757;28;20178;-41
2024/01/09 06:32:03;;;;;;;6.22;2.80;;;-4.50;99.90;;;;;;5073664;28;20041;-41
2024/01/09 06:34:28;;;;;;;5.37;2.00;;;-4.50;99.90;;;;;;5073769;28;20468;-41
2024/01/09 06:36:54;;;;;;;6.43;2.35;;;-4.50;99.90;;;;;;5073480;28;20458;-41
2024/01/09 06:39:20;;;;;;;7.80;2.58;;;-4.50;99.90;;;;;;5073286;28;20060;-41
2024/01/09 06:41:45;;;;;;;7.00;2.80;;;-4.60;99.90;;;;;;5072255;28;20056;-41
2024/01/09 06:44:11;;;;;;;7.93;2.38;;;-4.60;99.90;;;;;;5073417;28;20048;-41
2024/01/09 06:46:37;;;;;;;5.90;2.60;;;-4.60;99.90;;;;;;5073444;28;20101;-41
2024/01/09 06:49:03;;;;;;;8.25;2.83;;;-4.60;99.90;;;;;;5073405;28;20117;-41
2024/01/09 06:51:29;;;;;;;5.53;2.53;;;-4.60;99.90;;;;;;5073362;28;20166;-41
2024/01/09 06:53:55;;;;;;;6.03;2.33;;;-4.60;99.90;;;;;;5072420;28;20041;-41
2024/01/09 06:56:21;;;;;;;6.53;2.67;;;-4.60;99.90;;;;;;5073114;28;20110;-41
2024/01/09 06:58:46;;;;;;;5.57;2.42;;;-4.60;99.90;;;;;;5073067;28;20475;-41
2024/01/09 07:01:12;;;;;;;6.93;2.60;;;-4.60;99.90;;;;;;5073326;28;20040;-41
2024/01/09 07:03:38;;;;;;;5.43;2.30;;;-4.60;99.90;;;;;;5076915;28;20517;-41
2024/01/09 07:06:04;;;;;;;6.38;2.40;;;-4.60;99.90;;;;;;5077289;28;20397;-41
2024/01/09 07:08:30;;;;;;;6.22;2.60;;;-4.60;99.90;;;;;;5077063;28;20067;-41
2024/01/09 07:10:56;;;;;;;5.03;2.13;;;-4.60;99.90;;;;;;5077056;28;20499;-41
2024/01/09 07:13:23;;;;;;;6.85;2.67;;;-4.60;99.90;;;;;;5076869;28;20056;-41
2024/01/09 07:15:52;;;;;;;6.93;2.00;;;-4.70;99.90;;;;;;5077188;28;20044;-41
2024/01/09 07:18:17;;;;;;;5.00;2.00;;;-4.70;99.90;;;;;;5076851;28;20037;-41
2024/01/09 07:20:43;;;;;;;6.00;2.20;;;-4.80;99.90;;;;;;5077062;28;20048;-41
2024/01/09 07:23:09;;;;;;;5.57;2.27;;;-4.80;99.90;;;;;;5077039;28;20140;-41
2024/01/09 07:25:35;;;;;;;5.28;1.83;;;-4.80;99.90;;;;;;5076831;28;20131;-41
2024/01/09 07:28:00;;;;;;;4.40;1.58;;;-4.80;99.90;;;;;;5075856;28;20061;-41
2024/01/09 07:30:26;;;;;;;4.97;2.13;;;-4.70;99.90;;;;;;5076877;28;20407;-40
2024/01/09 07:32:52;;;;;;;5.22;2.15;;;-4.70;99.90;;;;;;5076606;28;20052;-40
2024/01/09 07:35:17;;;;;;;5.50;2.30;;;-4.70;99.90;;;;;;5076758;28;20064;-40
2024/01/09 07:37:43;;;;;;;5.45;2.05;;;-4.70;99.90;;;;;;5076634;28;20055;-40
2024/01/09 07:40:09;;;;;;;5.35;1.92;;;-4.70;99.90;;;;;;5075110;28;20448;-40
2024/01/09 07:42:35;;;;;;;5.97;2.05;;;-4.70;99.90;;;;;;5076585;28;20040;-40
2024/01/09 07:45:02;;;;;;;4.57;1.70;;;-4.70;99.90;;;;;;5076540;28;20049;-40
2024/01/09 07:47:28;;;;;;;;;;;-4.80;99.90;;;;;;5076937;28;20048;-40
2024/01/09 07:49:54;;;;;;;4.28;1.42;;;-4.80;99.90;;;;;;5076575;28;20283;-40
2024/01/09 07:52:19;;;;;;;6.53;2.47;;;-4.80;99.90;;;;;;5076292;28;20040;-40
2024/01/09 07:54:45;;;;;;;4.22;1.58;;;-4.80;99.90;;;;;;5075016;28;20048;-41
2024/01/09 07:57:11;;;;;;;5.53;1.90;;;-4.80;99.90;;;;;;5075110;28;20046;-40
2024/01/09 07:59:37;;;;;;;4.97;1.75;;;-4.80;99.90;;;;;;5076177;28;20094;-40
2024/01/09 08:02:04;;;;;;;6.35;1.90;;;-4.90;99.90;;;;;;5076178;28;20084;-40
2024/01/09 08:04:30;;;;;;;4.43;1.73;;;-4.90;99.90;;;;;;5074930;28;20048;-40
2024/01/09 08:06:56;;;;;;;4.70;1.70;;;-4.80;99.90;;;;;;5075998;28;20502;-40
2024/01/09 08:09:21;;;;;;;5.93;2.08;;;-4.80;99.90;;;;;;5075978;28;20554;-40
2024/01/09 08:11:47;;;;;;;4.68;1.67;;;-4.80;99.90;;;;;;5075852;28;20548;-40
2024/01/09 08:14:14;;;;;;;5.32;1.85;;;-4.80;99.90;;;;;;5074473;28;20056;-40
2024/01/09 08:16:40;;;;;;;6.30;1.70;;;-4.80;99.90;;;;;;5075982;28;20131;-39
2024/01/09 08:19:09;;;;;;;4.40;1.60;;;-4.70;99.90;;;;;;5075816;28;20178;-40
2024/01/09 08:21:38;;;;;;;4.67;1.57;;;-4.70;99.90;;;;;;5075810;28;20185;-40
2024/01/09 08:24:04;;;;;;;5.73;1.80;;;-4.70;99.90;;;;;;5075547;28;20051;-40
2024/01/09 08:26:30;;;;;;;4.83;1.73;;;-4.60;99.90;;;;;;5075786;28;20041;-40
2024/01/09 08:28:56;;;;;;;4.88;1.40;;;-4.60;99.90;;;;;;5075743;28;20045;-40
2024/01/09 08:31:21;;;;;;;5.22;1.52;;;-4.60;99.90;;;;;;5075900;28;20383;-40
2024/01/09 08:33:47;;;;;;;6.55;1.92;;;-4.50;99.90;;;;;;5075652;28;20365;-40
2024/01/09 08:36:14;;;;;;;5.93;1.97;;;-4.50;99.90;;;;;;5075528;28;20053;-40
2024/01/09 08:38:40;;;;;;;5.95;1.52;;;-4.50;99.90;;;;;;5075359;28;20045;-40
2024/01/09 08:41:05;;;;;;;5.10;1.83;;;-4.40;99.90;;;;;;5075537;28;20580;-40
2024/01/09 08:43:31;;;;;;;5.28;1.88;;;-4.40;99.90;;;;;;5075199;28;20088;-40
2024/01/09 08:45:57;;;;;;;4.85;2.05;;;-4.30;99.90;;;;;;5075591;28;20045;-40
2024/01/09 08:48:23;;;;;;;4.93;1.73;;;-4.30;99.90;;;;;;5075506;28;20442;-40
2024/01/09 08:50:49;;;;;;;6.63;2.60;;;-4.30;99.90;;;;;;5075247;28;20045;-40
2024/01/09 08:53:15;;;;;;;6.70;2.07;;;-4.30;99.90;;;;;;5075172;28;20078;-40
2024/01/09 08:55:41;;;;;;;4.22;1.88;;;-4.20;99.90;;;;;;5075160;28;20048;-40
2024/01/09 08:58:07;;;;;;;9.50;2.30;;;-4.10;99.90;;;;;;5075172;28;20056;-39
2024/01/09 09:00:33;;;;;;;5.38;2.28;;;-4.10;99.90;;;;;;5075028;28;20159;-39
2024/01/09 09:02:59;;;;;;;5.90;2.30;;;-4.00;99.90;;;;;;5073903;28;20154;-39
2024/01/09 09:05:25;;;;;;;5.63;2.15;;;-4.00;99.90;;;;;;5073816;28;20048;-39
2024/01/09 09:07:51;;;;;;;7.95;2.90;;;-4.00;99.90;;;;;;5074792;28;20499;-39
2024/01/09 09:10:17;;;;;;;6.28;2.78;;;-3.90;99.90;;;;;;5074918;28;20040;-39
2024/01/09 09:12:43;;;;;;;6.60;2.90;;;-3.90;99.90;;;;;;5074805;28;20086;-39
2024/01/09 09:15:09;;;;;;;6.13;2.78;;;-3.90;99.90;;;;;;5074891;28;20059;-39
2024/01/09 09:17:35;;;;;;;7.40;2.90;;;-3.80;99.90;;;;;;5074875;28;20036;-39
2024/01/09 09:20:00;;;;;;;8.40;3.90;;;-3.80;99.90;;;;;;5074546;28;20063;-39
2024/01/09 09:22:28;;;;;;;6.75;2.97;;;-3.70;99.90;;;;;;5074503;28;20052;-40
2024/01/09 09:24:54;;;;;;;6.32;2.75;;;-3.70;99.90;;;;;;5074315;28;20128;-39
2024/01/09 09:27:20;;;;;;;6.18;2.60;;;-3.60;99.90;;;;;;5073598;28;20499;-40
2024/01/09 09:29:46;;;;;;;6.50;2.70;;;-3.60;99.90;;;;;;5074530;28;20060;-39
2024/01/09 09:32:11;;;;;;;8.45;3.40;;;-3.50;99.90;;;;;;5074248;28;20040;-39
2024/01/09 09:34:41;;;;;;;8.32;3.22;;;-3.50;99.90;;;;;;5073117;28;20475;-39
2024/01/09 09:37:07;;;;;;;6.75;2.97;;;-3.40;99.90;;;;;;5073994;28;20044;-39
2024/01/09 09:39:34;;;;;;;6.35;3.15;;;-3.40;99.90;;;;;;5074346;28;20051;-39
2024/01/09 09:41:59;;;;;;;4.95;2.20;;;-3.30;99.90;;;;;;5073170;28;20484;-39
2024/01/09 09:44:26;;;;;;;6.22;2.03;;;-3.20;99.90;;;;;;5074345;28;20087;-39
2024/01/09 09:46:52;;;;;;;4.07;1.75;;;-3.10;99.90;;;;;;5074102;28;20091;-39
2024/01/09 09:49:24;;;;;;;5.28;1.42;;;-3.10;99.90;;;;;;5074156;28;20094;-39
2024/01/09 09:51:50;;;;;;;4.03;1.52;;;-3.00;99.90;;;;;;5074391;28;20055;-39
2024/01/09 09:54:17;;;;;;;3.85;1.30;;;-2.90;99.90;;;;;;5074081;28;20048;-39
2024/01/09 09:56:44;;;;;;;2.88;0.95;;;-2.80;99.90;;;;;;5074008;28;20123;-39
2024/01/09 09:59:13;;;;;;;4.03;1.60;;;-2.60;99.90;;;;;;5073894;28;20443;-39
2024/01/09 10:01:43;;;;;;;3.95;1.40;;;-2.70;99.90;;;;;;5073889;28;20090;-39
2024/01/09 10:04:36;;;;;;;4.43;1.70;;;-2.60;99.90;;;;;;5073866;28;20093;-39
2024/01/09 10:07:05;;;;;;;3.38;1.40;;;-2.50;99.90;;;;;;5073990;28;20051;-39
2024/01/09 10:09:34;;;;;;;3.35;1.20;;;-2.50;99.90;;;;;;5073857;28;20093;-39
2024/01/09 10:12:00;;;;;;;3.97;1.70;;;-2.40;99.90;;;;;;5073946;28;20048;-39
2024/01/09 10:14:26;;;;;;;3.85;1.67;;;-2.40;99.90;;;;;;5073814;28;20060;-39
2024/01/09 10:16:54;;;;;;;4.07;1.38;;;-2.40;99.90;;;;;;5073591;28;20053;-39
2024/01/09 10:19:22;;;;;;;4.63;1.50;;;-2.30;99.90;;;;;;5073752;28;20189;-39
2024/01/09 10:21:48;;;;;;;3.30;1.42;;;-2.20;99.90;;;;;;5074045;28;20033;-39
2024/01/09 10:24:15;;;;;;;3.75;1.45;;;-2.20;99.90;;;;;;5073713;28;20062;-39
2024/01/09 10:26:41;;;;;;;;;;;-2.20;99.90;;;;;;5073923;28;20048;-39
2024/01/09 10:29:11;;;;;;;3.15;1.20;;;-2.10;99.90;;;;;;5073409;28;19920;-40
2024/01/09 10:31:40;;;;;;;3.30;1.33;;;-2.00;99.90;;;;;;5073845;28;20436;-39
2024/01/09 10:34:07;;;;;;;3.05;1.20;;;-2.00;99.90;;;;;;5072666;28;20049;-39
2024/01/09 10:36:32;;;;;;;3.63;1.33;;;-2.00;99.90;;;;;;5071956;28;20510;-39
2024/01/09 10:39:05;;;;;;;3.83;1.60;;;-1.90;99.90;;;;;;5073689;28;20040;-39
2024/01/09 10:41:32;;;;;;;3.03;1.00;;;-1.90;99.90;;;;;;5073734;28;20040;-39
2024/01/09 10:43:59;;;;;;;2.33;1.02;;;-1.90;99.90;;;;;;5073308;28;20091;-39
2024/01/09 10:46:26;;;;;;;3.28;1.10;;;-1.90;99.90;;;;;;5073558;28;20476;-39
2024/01/09 10:48:53;;;;;;;;;;;-1.90;99.90;;;;;;5073909;28;20036;-39
2024/01/09 10:51:20;;;;;;;3.10;1.17;;;-1.80;99.90;;;;;;5073410;28;19928;-39
2024/01/09 10:53:48;;;;;;;3.10;1.38;;;-1.80;99.90;;;;;;5073480;28;20041;-39
2024/01/09 10:56:18;;;;;;;3.53;1.33;;;-1.80;99.90;;;;;;5073296;28;20086;-39
2024/01/09 10:58:46;;;;;;;3.60;1.30;;;-1.70;99.90;;;;;;5073443;28;20106;-39
2024/01/09 11:01:13;;;;;;;4.60;1.20;;;-1.70;99.90;;;;;;5073372;28;20480;-39
2024/01/09 11:03:39;;;;;;;3.58;1.13;;;-1.70;99.90;;;;;;5073389;28;20102;-39
2024/01/09 11:06:07;;;;;;;3.05;1.30;;;-1.70;99.90;;;;;;5073521;28;20051;-39
2024/01/09 11:08:36;;;;;;;2.70;1.08;;;-1.60;99.90;;;;;;5073265;28;20076;-39
2024/01/09 11:11:12;;;;;;;2.95;1.27;;;-1.60;99.90;;;;;;5071875;28;20041;-39
2024/01/09 11:13:42;;;;;;;5.30;1.60;;;-1.60;99.90;;;;;;5073147;28;20052;-39
2024/01/09 11:16:09;;;;;;;3.40;1.42;;;-1.60;99.90;;;;;;5072337;28;20056;-39
2024/01/09 11:18:35;;;;;;;3.78;1.00;;;-1.50;99.90;;;;;;5073244;28;20162;-39
2024/01/09 11:21:02;;;;;;;3.10;1.30;;;-1.50;99.90;;;;;;5073138;28;20052;-39
2024/01/09 11:23:43;;;;;;;3.45;1.70;;;-1.50;99.90;;;;;;5071692;28;20380;-39
2024/01/09 11:26:12;;;;;;;3.85;1.50;;;-1.50;99.90;;;;;;5073141;28;20110;-39
2024/01/09 11:28:39;;;;;;;4.15;1.70;;;-1.50;99.90;;;;;;5073149;28;20074;-39
2024/01/09 11:31:09;;;;;;;3.25;1.50;;;-1.40;99.90;;;;;;5073061;28;20170;-39
2024/01/09 11:33:41;;;;;;;3.97;1.75;;;-1.40;99.90;;;;;;5072860;28;20045;-39
2024/01/09 11:36:07;;;;;;;3.78;1.30;;;-1.40;99.90;;;;;;5071902;28;20055;-39
2024/01/09 11:38:34;;;;;;;6.97;1.70;;;-1.40;99.90;;;;;;5073123;28;20045;-39
2024/01/09 11:41:09;;;;;;;5.03;1.80;;;-1.40;99.90;;;;;;5073012;28;20275;-39
2024/01/09 11:44:00;;;;;;;4.28;1.75;;;-1.20;99.90;;;;;;5073011;28;20119;-39
2024/01/09 11:46:28;;;;;;;5.18;2.55;;;-1.40;99.90;;;;;;5071536;28;20063;-39
2024/01/09 11:48:54;;;;;;;5.90;2.60;;;-1.30;99.90;;;;;;5075359;28;20105;-39
2024/01/09 11:51:23;;;;;;;5.97;2.67;;;-1.30;99.90;;;;;;5076383;28;20037;-39
2024/01/09 11:53:50;;;;;;;8.18;3.10;;;-1.30;99.90;;;;;;5075300;28;20075;-39
2024/01/09 11:56:17;;;;;;;6.05;2.38;;;-1.30;99.90;;;;;;5076444;28;20049;-39
2024/01/09 11:58:44;;;;;;;5.70;2.55;;;-1.30;99.90;;;;;;5075226;28;20048;-39
2024/01/09 12:01:10;;;;;;;5.88;2.35;;;-1.30;99.90;;;;;;5075113;28;20053;-39
2024/01/09 12:03:35;;;;;;;5.28;2.38;;;-1.30;99.90;;;;;;5076326;28;20046;-39
2024/01/09 12:06:04;;;;;;;7.28;2.72;;;-1.30;99.90;;;;;;5075303;28;20048;-39
2024/01/09 12:08:33;;;;;;;7.10;2.95;;;-1.30;99.90;;;;;;5076159;28;20373;-39
2024/01/09 12:11:00;;;;;;;6.55;2.45;;;-1.20;99.90;;;;;;5076131;28;20084;-39
2024/01/09 12:13:26;;;;;;;6.32;2.53;;;-1.30;99.90;;;;;;5075784;28;20045;-40
2024/01/09 12:15:52;;;;;;;5.22;2.65;;;-1.20;99.90;;;;;;5075909;28;20377;-39
2024/01/09 12:18:18;;;;;;;5.90;2.70;;;-1.20;99.90;;;;;;5076019;28;20049;-39
2024/01/09 12:20:44;;;;;;;5.97;2.58;;;-1.20;99.90;;;;;;5074935;28;20336;-39
2024/01/09 12:23:10;;;;;;;6.55;2.70;;;-1.20;99.90;;;;;;5076196;28;20097;-39
2024/01/09 12:25:36;;;;;;;7.25;2.92;;;-1.20;99.90;;;;;;5075886;28;20048;-39
2024/01/09 12:28:02;;;;;;;6.10;2.67;;;-1.20;99.90;;;;;;5075798;28;20044;-40
2024/01/09 12:30:31;;;;;;;6.80;2.83;;;-1.20;99.90;;;;;;5076070;28;20048;-39
2024/01/09 12:32:58;;;;;;;5.22;2.10;;;-1.20;99.90;;;;;;5075625;28;20090;-39
2024/01/09 12:35:25;;;;;;;5.43;2.65;;;-1.20;99.90;;;;;;5075703;28;20063;-39
2024/01/09 12:37:51;;;;;;;7.18;3.22;;;-1.20;99.90;;;;;;5075478;28;20051;-39
2024/01/09 12:40:18;;;;;;;6.93;2.38;;;-1.20;99.90;;;;;;5075840;28;20048;-39
2024/01/09 12:42:45;;;;;;;5.43;2.70;;;-1.20;99.90;;;;;;5075306;28;20052;-40